createdAt,value
2024-04-02T00:01:31.930Z,100.00
2024-04-02T00:03:39.919Z,100.00
2024-04-02T00:05:48.393Z,100.00
2024-04-02T00:07:55.794Z,100.00
2024-04-02T00:10:03.166Z,100.00
2024-04-02T00:12:11.376Z,100.00
2024-04-02T00:14:19.080Z,100.00
2024-04-02T00:16:26.544Z,100.00
2024-04-02T00:18:33.887Z,100.00
2024-04-02T00:20:41.260Z,100.00
2024-04-02T00:22:49.233Z,100.00
2024-04-02T00:24:56.570Z,100.00
2024-04-02T00:27:04.280Z,100.00
2024-04-02T00:29:11.805Z,100.00
2024-04-02T00:31:21.863Z,100.00
2024-04-02T00:33:29.308Z,100.00
2024-04-02T00:35:36.789Z,100.00
2024-04-02T00:37:44.473Z,100.00
2024-04-02T00:39:52.229Z,100.00
2024-04-02T00:41:59.629Z,100.00
2024-04-02T00:44:07.129Z,100.00
2024-04-02T00:46:14.690Z,100.00
2024-04-02T00:48:24.490Z,100.00
2024-04-02T00:50:32.759Z,100.00
2024-04-02T00:52:41.483Z,100.00
2024-04-02T00:54:49.058Z,100.00
2024-04-02T00:56:56.535Z,100.00
2024-04-02T00:59:04.298Z,100.00
2024-04-02T01:01:12.599Z,100.00
2024-04-02T01:03:19.952Z,100.00
2024-04-02T01:05:27.446Z,100.00
2024-04-02T01:07:36.705Z,100.00
2024-04-02T01:09:46.344Z,100.00
2024-04-02T01:11:55.097Z,100.00
2024-04-02T01:14:02.949Z,100.00
2024-04-02T01:16:14.255Z,100.00
2024-04-02T01:18:22.113Z,100.00
2024-04-02T01:20:29.558Z,100.00
2024-04-02T01:22:37.004Z,100.00
2024-04-02T01:24:50.496Z,100.00
2024-04-02T01:26:59.149Z,100.00
2024-04-02T01:29:07.222Z,100.00
2024-04-02T01:31:14.684Z,100.00
2024-04-02T01:33:22.206Z,100.00
2024-04-02T01:35:29.725Z,100.00
2024-04-02T01:37:37.148Z,100.00
2024-04-02T01:39:44.914Z,100.00
2024-04-02T01:41:52.253Z,100.00
2024-04-02T01:43:59.802Z,100.00
2024-04-02T01:46:07.664Z,100.00
2024-04-02T01:48:15.023Z,100.00
2024-04-02T01:50:22.921Z,100.00
2024-04-02T01:52:30.957Z,100.00
2024-04-02T02:00:07.558Z,100.00
2024-04-02T02:02:15.128Z,100.00
2024-04-02T02:04:23.229Z,100.00
2024-04-02T02:06:30.678Z,100.00
2024-04-02T02:08:38.227Z,100.00
2024-04-02T02:10:45.594Z,100.00
2024-04-02T02:12:53.350Z,100.00
2024-04-02T02:15:01.036Z,100.00
2024-04-02T02:17:09.135Z,100.00
2024-04-02T02:19:16.506Z,100.00
2024-04-02T02:21:24.167Z,100.00
2024-04-02T02:23:31.859Z,100.00
2024-04-02T02:25:39.238Z,100.00
2024-04-02T02:27:46.577Z,100.00
2024-04-02T02:29:54.305Z,100.00
2024-04-02T02:32:03.264Z,100.00
2024-04-02T02:34:12.883Z,100.00
2024-04-02T02:36:21.050Z,100.00
2024-04-02T02:38:28.790Z,100.00
2024-04-02T02:40:36.352Z,100.00
2024-04-02T02:42:46.327Z,100.00
2024-04-02T02:44:53.766Z,100.00
2024-04-02T02:47:01.474Z,100.00
2024-04-02T02:49:08.871Z,100.00
2024-04-02T02:51:16.287Z,100.00
2024-04-02T02:53:24.000Z,100.00
2024-04-02T02:55:31.789Z,100.00
2024-04-02T02:57:40.109Z,100.00
2024-04-02T02:59:48.625Z,100.00
2024-04-02T03:01:57.477Z,100.00
2024-04-02T03:04:05.341Z,100.00
2024-04-02T03:06:12.748Z,100.00
2024-04-02T03:08:20.403Z,100.00
2024-04-02T03:10:27.952Z,100.00
2024-04-02T03:12:35.701Z,100.00
2024-04-02T03:14:43.450Z,100.00
2024-04-02T03:16:50.844Z,100.00
2024-04-02T03:18:58.579Z,100.00
2024-04-02T03:21:06.799Z,100.00
2024-04-02T03:23:14.241Z,100.00
2024-04-02T03:25:21.591Z,100.00
2024-04-02T03:27:29.106Z,100.00
2024-04-02T03:29:36.572Z,100.00
2024-04-02T03:31:44.536Z,100.00
2024-04-02T03:33:51.900Z,100.00
2024-04-02T03:36:04.387Z,100.00
2024-04-02T03:38:12.652Z,100.00
2024-04-02T03:40:20.783Z,100.00
2024-04-02T03:42:28.133Z,100.00
2024-04-02T03:44:36.428Z,100.00
2024-04-02T03:46:43.818Z,100.00
2024-04-02T03:48:52.892Z,100.00
2024-04-02T03:51:00.912Z,100.00
2024-04-02T03:53:09.656Z,100.00
2024-04-02T03:55:19.949Z,100.00
2024-04-02T03:57:27.683Z,100.00
2024-04-02T03:59:37.803Z,100.00
2024-04-02T04:01:45.792Z,100.00
2024-04-02T04:03:54.008Z,100.00
2024-04-02T04:06:03.035Z,100.00
2024-04-02T04:08:11.528Z,100.00
2024-04-02T04:10:19.445Z,100.00
2024-04-02T04:12:27.241Z,100.00
2024-04-02T04:14:35.236Z,100.00
2024-04-02T04:16:42.946Z,100.00
2024-04-02T04:18:50.288Z,100.00
2024-04-02T04:20:59.634Z,100.00
2024-04-02T04:23:08.173Z,100.00
2024-04-02T04:25:16.043Z,100.00
2024-04-02T04:27:29.525Z,100.00
2024-04-02T04:29:36.848Z,100.00
2024-04-02T04:31:47.907Z,100.00
2024-04-02T04:33:55.321Z,100.00
2024-04-02T04:36:02.640Z,100.00
2024-04-02T04:38:10.267Z,100.00
2024-04-02T04:40:21.556Z,100.00
2024-04-02T04:42:33.202Z,100.00
2024-04-02T04:44:44.101Z,100.00
2024-04-02T04:46:51.814Z,100.00
2024-04-02T04:48:59.513Z,100.00
2024-04-02T04:51:08.704Z,100.00
2024-04-02T04:53:16.106Z,100.00
2024-04-02T04:55:23.601Z,100.00
2024-04-02T04:57:30.956Z,100.00
2024-04-02T04:59:38.617Z,100.00
2024-04-02T05:05:37.047Z,100.00
2024-04-02T05:07:59.172Z,100.00
2024-04-02T05:10:09.548Z,100.00
2024-04-02T05:12:16.893Z,100.00
2024-04-02T05:14:24.903Z,100.00
2024-04-02T05:16:34.894Z,100.00
2024-04-02T05:18:42.788Z,100.00
2024-04-02T05:20:50.488Z,100.00
2024-04-02T05:22:58.076Z,100.00
2024-04-02T05:25:06.499Z,100.00
2024-04-02T05:27:13.861Z,100.00
2024-04-02T05:29:21.557Z,100.00
2024-04-02T05:31:29.002Z,100.00
2024-04-02T05:33:36.752Z,100.00
2024-04-02T05:35:44.137Z,100.00
2024-04-02T05:37:53.024Z,100.00
2024-04-02T05:40:00.374Z,100.00
2024-04-02T05:42:12.237Z,100.00
2024-04-02T05:44:19.673Z,100.00
2024-04-02T05:46:27.081Z,100.00
2024-04-02T05:48:34.840Z,100.00
2024-04-02T05:50:42.566Z,100.00
2024-04-02T05:52:50.671Z,100.00
2024-04-02T05:54:58.422Z,100.00
2024-04-02T05:57:06.705Z,100.00
2024-04-02T05:59:14.462Z,100.00
2024-04-02T06:01:23.414Z,100.00
2024-04-02T06:03:30.766Z,100.00
2024-04-02T06:05:39.185Z,100.00
2024-04-02T06:07:46.579Z,100.00
2024-04-02T06:09:55.072Z,100.00
2024-04-02T06:12:02.883Z,100.00
2024-04-02T06:14:10.808Z,100.00
2024-04-02T06:16:18.686Z,100.00
2024-04-02T06:18:26.090Z,100.00
2024-04-02T06:20:33.940Z,100.00
2024-04-02T06:22:41.319Z,100.00
2024-04-02T06:24:49.539Z,100.00
2024-04-02T06:26:56.923Z,100.00
2024-04-02T06:29:04.265Z,100.00
2024-04-02T06:31:11.776Z,100.00
2024-04-02T06:33:19.337Z,100.00
2024-04-02T06:35:26.691Z,100.00
2024-04-02T06:37:34.550Z,100.00
2024-04-02T06:39:41.887Z,100.00
2024-04-02T06:41:49.436Z,100.00
2024-04-02T06:43:56.900Z,100.00
2024-04-02T06:46:04.905Z,100.00
2024-04-02T06:48:12.368Z,100.00
2024-04-02T06:50:19.840Z,100.00
2024-04-02T06:52:27.243Z,100.00
2024-04-02T06:54:34.627Z,100.00
2024-04-02T06:56:42.449Z,100.00
2024-04-02T06:58:49.858Z,100.00
2024-04-02T07:00:57.268Z,100.00
2024-04-02T07:03:05.187Z,100.00
2024-04-02T07:05:12.629Z,100.00
2024-04-02T07:07:20.366Z,100.00
2024-04-02T07:09:27.797Z,100.00
2024-04-02T07:11:35.191Z,100.00
2024-04-02T07:13:43.344Z,100.00
2024-04-02T07:15:50.737Z,100.00
2024-04-02T07:17:58.117Z,100.00
2024-04-02T07:20:06.617Z,100.00
2024-04-02T07:22:13.994Z,100.00
2024-04-02T07:24:21.858Z,100.00
2024-04-02T07:26:29.982Z,100.00
2024-04-02T07:28:37.704Z,100.00
2024-04-02T07:30:45.270Z,100.00
2024-04-02T07:32:53.187Z,100.00
2024-04-02T07:35:01.313Z,100.00
2024-04-02T07:37:09.415Z,100.00
2024-04-02T07:39:17.045Z,100.00
2024-04-02T07:41:30.448Z,100.00
2024-04-02T07:43:38.184Z,99.89
2024-04-02T07:45:54.742Z,99.37
2024-04-02T07:48:04.797Z,98.90
2024-04-02T07:50:12.425Z,98.55
2024-04-02T07:52:20.090Z,97.48
2024-04-02T07:54:27.635Z,99.14
2024-04-02T07:56:35.337Z,96.28
2024-04-02T07:58:43.379Z,96.10
2024-04-02T08:00:51.323Z,95.75
2024-04-02T08:02:59.244Z,94.17
2024-04-02T08:05:08.275Z,94.54
2024-04-02T08:07:18.400Z,93.72
2024-04-02T08:09:26.043Z,93.51
2024-04-02T08:11:33.450Z,91.66
2024-04-02T08:13:40.821Z,91.34
2024-04-02T08:15:52.039Z,89.95
2024-04-02T08:17:59.651Z,92.09
2024-04-02T08:20:10.075Z,90.01
2024-04-02T08:22:19.523Z,88.77
2024-04-02T08:24:27.064Z,89.23
2024-04-02T08:26:34.499Z,88.32
2024-04-02T08:28:41.947Z,88.44
2024-04-02T08:30:49.340Z,87.77
2024-04-02T08:32:56.676Z,86.29
2024-04-02T08:35:06.048Z,86.49
2024-04-02T08:37:13.781Z,85.63
2024-04-02T08:39:21.123Z,86.38
2024-04-02T08:41:29.424Z,86.15
2024-04-02T08:43:37.245Z,86.12
2024-04-02T08:45:45.924Z,88.20
2024-04-02T08:47:54.201Z,89.46
2024-04-02T08:50:02.897Z,89.25
2024-04-02T08:52:10.455Z,90.13
2024-04-02T08:54:17.796Z,89.57
2024-04-02T08:56:25.580Z,90.30
2024-04-02T08:58:35.037Z,90.37
2024-04-02T09:00:42.559Z,89.84
2024-04-02T09:02:50.164Z,92.21
2024-04-02T09:04:57.994Z,92.02
2024-04-02T09:07:05.929Z,92.06
2024-04-02T09:09:24.502Z,93.83
2024-04-02T09:11:32.126Z,91.74
2024-04-02T09:13:40.716Z,91.25
2024-04-02T09:15:50.134Z,91.68
2024-04-02T09:17:58.055Z,91.66
2024-04-02T09:20:07.263Z,90.14
2024-04-02T09:22:17.803Z,90.57
2024-04-02T09:24:26.011Z,89.81
2024-04-02T09:26:33.720Z,89.68
2024-04-02T09:28:44.263Z,91.23
2024-04-02T09:30:51.791Z,90.80
2024-04-02T09:33:03.517Z,90.98
2024-04-02T09:35:15.236Z,91.80
2024-04-02T09:37:35.458Z,92.29
2024-04-02T09:39:44.268Z,91.13
2024-04-02T09:42:02.283Z,92.59
2024-04-02T09:44:14.048Z,91.88
2024-04-02T09:46:23.679Z,91.98
2024-04-02T09:48:33.172Z,92.68
2024-04-02T09:50:44.036Z,92.96
2024-04-02T09:52:54.228Z,91.86
2024-04-02T09:55:04.072Z,89.85
2024-04-02T09:57:15.301Z,87.10
2024-04-02T09:59:23.349Z,87.61
2024-04-02T10:01:33.946Z,86.52
2024-04-02T10:03:45.424Z,84.33
2024-04-02T10:05:53.772Z,85.38
2024-04-02T10:08:01.172Z,85.11
2024-04-02T10:10:09.235Z,83.52
2024-04-02T10:12:21.430Z,83.09
2024-04-02T10:14:29.225Z,81.96
2024-04-02T10:16:40.758Z,81.75
2024-04-02T10:18:49.454Z,80.49
2024-04-02T10:21:00.894Z,79.86
2024-04-02T10:23:11.562Z,80.82
2024-04-02T10:25:18.933Z,80.29
2024-04-02T10:27:27.892Z,80.71
2024-04-02T10:29:35.266Z,80.47
2024-04-02T10:31:44.879Z,80.22
2024-04-02T10:33:55.487Z,79.42
2024-04-02T10:36:03.398Z,80.08
2024-04-02T10:38:11.547Z,79.28
2024-04-02T10:40:20.171Z,77.11
2024-04-02T10:42:27.877Z,77.29
2024-04-02T10:44:36.017Z,76.54
2024-04-02T10:46:45.280Z,77.19
2024-04-02T10:48:52.971Z,77.85
2024-04-02T10:51:00.658Z,77.85
2024-04-02T10:53:08.512Z,78.47
2024-04-02T10:55:16.641Z,77.80
2024-04-02T10:57:24.233Z,77.65
2024-04-02T10:59:37.228Z,76.77
2024-04-02T11:01:45.214Z,76.93
2024-04-02T11:03:54.362Z,77.61
2024-04-02T11:06:12.164Z,77.96
2024-04-02T11:08:19.911Z,77.78
2024-04-02T11:10:27.340Z,77.36
2024-04-02T11:12:34.743Z,76.11
2024-04-02T11:14:42.890Z,75.13
2024-04-02T11:16:53.478Z,74.02
2024-04-02T11:19:02.834Z,75.13
2024-04-02T11:21:15.634Z,75.85
2024-04-02T11:23:45.089Z,76.21
2024-04-02T11:25:54.101Z,74.62
2024-04-02T11:28:10.338Z,73.81
2024-04-02T11:30:21.426Z,73.39
2024-04-02T11:32:30.179Z,73.97
2024-04-02T11:34:37.539Z,76.78
2024-04-02T11:36:45.222Z,76.54
2024-04-02T11:38:52.662Z,73.98
2024-04-02T11:41:03.081Z,70.57
2024-04-02T11:43:10.614Z,70.69
2024-04-02T11:45:18.365Z,69.18
2024-04-02T11:47:25.796Z,69.09
2024-04-02T11:49:33.539Z,68.69
2024-04-02T11:51:40.855Z,68.47
2024-04-02T11:53:48.544Z,68.29
2024-04-02T11:55:56.801Z,68.25
2024-04-02T11:58:22.153Z,69.19
2024-04-02T12:00:30.259Z,68.47
2024-04-02T12:02:37.934Z,69.51
2024-04-02T12:04:46.090Z,69.48
2024-04-02T12:06:59.035Z,70.28
2024-04-02T12:09:10.175Z,70.02
2024-04-02T12:11:18.345Z,69.11
2024-04-02T12:13:26.134Z,68.35
2024-04-02T12:15:34.143Z,69.38
2024-04-02T12:17:41.854Z,66.20
2024-04-02T12:19:49.716Z,63.35
2024-04-02T12:21:57.468Z,63.58
2024-04-02T12:24:06.519Z,64.54
2024-04-02T12:26:14.590Z,61.66
2024-04-02T12:28:21.935Z,60.34
2024-04-02T12:30:32.649Z,60.66
2024-04-02T12:32:44.630Z,60.19
2024-04-02T12:34:53.102Z,59.53
2024-04-02T12:37:02.249Z,60.25
2024-04-02T12:39:09.973Z,60.06
2024-04-02T12:41:17.659Z,58.63
2024-04-02T12:43:25.039Z,57.74
2024-04-02T12:45:33.113Z,57.68
2024-04-02T12:47:42.468Z,58.06
2024-04-02T12:49:50.410Z,56.45
2024-04-02T12:51:57.761Z,58.69
2024-04-02T12:54:05.930Z,58.30
2024-04-02T12:56:15.299Z,59.16
2024-04-02T12:58:28.415Z,59.44
2024-04-02T13:00:42.603Z,60.18
2024-04-02T13:02:50.410Z,59.11
2024-04-02T13:05:00.202Z,60.50
2024-04-02T13:07:07.885Z,60.59
2024-04-02T13:09:15.486Z,61.76
2024-04-02T13:11:22.874Z,61.42
2024-04-02T13:13:30.544Z,61.32
2024-04-02T13:15:38.266Z,59.03
2024-04-02T13:17:45.965Z,58.52
2024-04-02T13:19:54.325Z,58.16
2024-04-02T13:22:02.030Z,57.93
2024-04-02T13:24:10.860Z,57.82
2024-04-02T13:26:18.736Z,56.81
2024-04-02T13:28:26.495Z,57.53
2024-04-02T13:30:34.003Z,57.64
2024-04-02T13:32:41.483Z,58.78
2024-04-02T13:34:50.596Z,58.43
2024-04-02T13:36:57.944Z,57.66
2024-04-02T13:39:05.594Z,60.61
2024-04-02T13:41:13.707Z,60.73
2024-04-02T13:43:21.511Z,60.30
2024-04-02T13:45:29.213Z,60.93
2024-04-02T13:47:36.845Z,61.44
2024-04-02T13:49:44.579Z,60.48
2024-04-02T13:51:51.935Z,60.48
2024-04-02T13:53:59.326Z,59.67
2024-04-02T13:56:09.464Z,60.32
2024-04-02T13:58:17.149Z,59.27
2024-04-02T14:00:24.543Z,58.28
2024-04-02T14:02:31.875Z,58.36
2024-04-02T14:04:44.825Z,59.97
2024-04-02T14:06:52.579Z,60.72
2024-04-02T14:08:59.890Z,61.25
2024-04-02T14:11:07.990Z,61.80
2024-04-02T14:13:34.480Z,62.74
2024-04-02T14:15:42.987Z,62.66
2024-04-02T14:17:50.878Z,62.77
2024-04-02T14:20:00.685Z,63.00
2024-04-02T14:22:08.338Z,63.45
2024-04-02T14:24:16.572Z,63.45
2024-04-02T14:26:25.029Z,64.75
2024-04-02T14:28:33.562Z,65.18
2024-04-02T14:30:40.889Z,65.56
2024-04-02T14:32:48.272Z,66.46
2024-04-02T14:34:57.663Z,65.60
2024-04-02T14:37:06.831Z,65.87
2024-04-02T14:39:14.257Z,65.76
2024-04-02T14:41:22.151Z,65.92
2024-04-02T14:43:31.007Z,66.18
2024-04-02T14:45:38.587Z,67.75
2024-04-02T14:47:46.754Z,67.48
2024-04-02T14:49:55.168Z,68.28
2024-04-02T14:52:02.596Z,67.43
2024-04-02T14:54:09.970Z,66.21
2024-04-02T14:56:17.420Z,66.40
2024-04-02T14:58:25.422Z,66.83
2024-04-02T15:00:33.100Z,65.43
2024-04-02T15:02:40.845Z,66.57
2024-04-02T15:04:48.511Z,67.51
2024-04-02T15:06:56.240Z,68.58
2024-04-02T15:09:12.560Z,69.56
2024-04-02T15:11:23.639Z,67.73
2024-04-02T15:13:31.451Z,66.18
2024-04-02T15:15:39.148Z,65.69
2024-04-02T15:17:46.477Z,66.81
2024-04-02T15:19:53.844Z,64.80
2024-04-02T15:22:03.253Z,65.92
2024-04-02T15:24:12.714Z,66.64
2024-04-02T15:26:20.417Z,65.66
2024-04-02T15:28:27.726Z,64.53
2024-04-02T15:30:35.059Z,64.80
2024-04-02T15:32:44.312Z,64.86
2024-04-02T15:34:52.619Z,66.59
2024-04-02T15:36:59.962Z,64.70
2024-04-02T15:39:09.265Z,65.61
2024-04-02T15:41:17.112Z,63.73
2024-04-02T15:43:24.837Z,63.64
2024-04-02T15:45:32.168Z,62.83
2024-04-02T15:47:39.835Z,62.92
2024-04-02T15:49:47.611Z,63.05
2024-04-02T15:51:55.232Z,63.35
2024-04-02T15:54:02.993Z,64.24
2024-04-02T15:56:29.407Z,65.11
2024-04-02T15:58:37.956Z,67.37
2024-04-02T16:00:45.301Z,70.32
2024-04-02T16:02:53.005Z,72.42
2024-04-02T16:05:00.751Z,74.87
2024-04-02T16:07:08.549Z,76.27
2024-04-02T16:09:15.915Z,77.39
2024-04-02T16:11:24.468Z,79.26
2024-04-02T16:13:33.393Z,80.98
2024-04-02T16:15:40.797Z,86.05
2024-04-02T16:17:48.548Z,93.57
2024-04-02T16:19:55.980Z,98.50
2024-04-02T16:22:03.343Z,100.00
2024-04-02T16:24:11.248Z,100.00
2024-04-02T16:26:18.577Z,100.00
2024-04-02T16:28:27.392Z,100.00
2024-04-02T16:30:37.351Z,100.00
2024-04-02T16:32:45.027Z,100.00
2024-04-02T16:34:55.584Z,100.00
2024-04-02T16:37:03.272Z,99.90
2024-04-02T16:39:11.340Z,99.37
2024-04-02T16:41:19.298Z,99.84
2024-04-02T16:43:28.267Z,99.22
2024-04-02T16:45:37.531Z,96.49
2024-04-02T16:47:47.616Z,96.71
2024-04-02T16:49:55.037Z,94.18
2024-04-02T16:52:02.722Z,96.69
2024-04-02T16:54:10.322Z,95.74
2024-04-02T16:56:18.328Z,94.14
2024-04-02T16:58:26.005Z,94.89
2024-04-02T17:00:33.616Z,93.46
2024-04-02T17:02:45.851Z,94.70
2024-04-02T17:04:53.183Z,96.71
2024-04-02T17:07:01.305Z,98.05
2024-04-02T17:09:09.381Z,97.33
2024-04-02T17:11:16.845Z,95.54
2024-04-02T17:13:24.271Z,93.65
2024-04-02T17:15:33.153Z,92.02
2024-04-02T17:17:40.737Z,91.79
2024-04-02T17:19:56.977Z,92.11
2024-04-02T17:22:05.811Z,92.04
2024-04-02T17:24:13.227Z,92.50
2024-04-02T17:26:21.019Z,91.20
2024-04-02T17:28:29.076Z,91.58
2024-04-02T17:30:36.419Z,90.57
2024-04-02T17:32:43.837Z,91.05
2024-04-02T17:34:53.108Z,91.56
2024-04-02T17:37:01.046Z,92.66
2024-04-02T17:39:09.616Z,93.22
2024-04-02T17:41:17.821Z,94.92
2024-04-02T17:43:26.675Z,95.15
2024-04-02T17:45:34.129Z,95.02
2024-04-02T17:47:41.550Z,95.25
2024-04-02T17:49:49.286Z,95.63
2024-04-02T17:51:59.774Z,96.62
2024-04-02T17:54:08.044Z,96.77
2024-04-02T17:56:18.432Z,97.10
2024-04-02T17:58:26.149Z,97.28
2024-04-02T18:00:33.479Z,97.46
2024-04-02T18:02:40.840Z,98.15
2024-04-02T18:04:48.409Z,99.07
2024-04-02T18:06:56.955Z,99.17
2024-04-02T18:09:04.323Z,99.67
2024-04-02T18:11:13.359Z,99.72
2024-04-02T18:13:21.080Z,100.00
2024-04-02T18:15:29.138Z,99.41
2024-04-02T18:17:36.518Z,99.54
2024-04-02T18:19:44.222Z,99.81
2024-04-02T18:21:51.546Z,100.00
2024-04-02T18:23:59.230Z,99.69
2024-04-02T18:26:08.977Z,99.93
2024-04-02T18:28:18.149Z,100.00
2024-04-02T18:30:25.523Z,100.00
2024-04-02T18:32:33.409Z,100.00
2024-04-02T18:34:40.752Z,100.00
2024-04-02T18:36:48.912Z,100.00
2024-04-02T18:38:58.403Z,100.00
2024-04-02T18:41:07.921Z,100.00
2024-04-02T18:43:16.459Z,100.00
2024-04-02T18:45:23.832Z,100.00
2024-04-02T18:47:31.555Z,100.00
2024-04-02T18:49:38.987Z,100.00
2024-04-02T18:51:46.350Z,100.00
2024-04-02T18:53:53.673Z,99.97
2024-04-02T18:56:04.311Z,100.00
2024-04-02T18:58:12.212Z,100.00
2024-04-02T19:00:21.255Z,100.00
2024-04-02T19:02:30.580Z,99.65
2024-04-02T19:04:38.326Z,99.52
2024-04-02T19:06:45.635Z,99.84
2024-04-02T19:08:52.931Z,99.77
2024-04-02T19:11:04.252Z,100.00
2024-04-02T19:13:11.824Z,100.00
2024-04-02T19:15:19.500Z,100.00
2024-04-02T19:17:26.892Z,100.00
2024-04-02T19:19:34.775Z,100.00
2024-04-02T19:21:42.120Z,100.00
2024-04-02T19:23:49.532Z,100.00
2024-04-02T19:25:58.683Z,100.00
2024-04-02T19:28:07.927Z,100.00
2024-04-02T19:30:17.358Z,100.00
2024-04-02T19:32:25.072Z,100.00
2024-04-02T19:34:32.764Z,100.00
2024-04-02T19:36:40.161Z,100.00
2024-04-02T19:38:47.896Z,100.00
2024-04-02T19:41:00.850Z,100.00
2024-04-02T19:43:08.570Z,100.00
2024-04-02T19:45:16.023Z,100.00
2024-04-02T19:47:23.546Z,100.00
2024-04-02T19:49:30.983Z,100.00
2024-04-02T19:51:39.857Z,100.00
2024-04-02T19:53:50.287Z,100.00
2024-04-02T19:55:58.713Z,100.00
2024-04-02T19:58:06.486Z,100.00
2024-04-02T20:00:15.458Z,100.00
2024-04-02T20:02:22.792Z,100.00
2024-04-02T20:04:30.138Z,100.00
2024-04-02T20:06:38.206Z,100.00
2024-04-02T20:08:46.402Z,100.00
2024-04-02T20:10:54.559Z,100.00
2024-04-02T20:13:01.956Z,100.00
2024-04-02T20:15:10.449Z,100.00
2024-04-02T20:17:18.068Z,100.00
2024-04-02T20:19:26.220Z,100.00
2024-04-02T20:21:33.569Z,100.00
2024-04-02T20:23:42.002Z,100.00
2024-04-02T20:25:49.488Z,100.00
2024-04-02T20:27:56.917Z,100.00
2024-04-02T20:30:05.238Z,100.00
2024-04-02T20:32:13.306Z,100.00
2024-04-02T20:34:20.982Z,100.00
2024-04-02T20:36:28.646Z,100.00
2024-04-02T20:38:36.609Z,100.00
2024-04-02T20:40:44.308Z,100.00
2024-04-02T20:42:51.769Z,100.00
2024-04-02T20:45:00.507Z,100.00
2024-04-02T20:47:08.754Z,100.00
2024-04-02T20:49:16.804Z,100.00
2024-04-02T20:51:24.195Z,100.00
2024-04-02T20:53:31.523Z,100.00
2024-04-02T20:55:39.280Z,100.00
2024-04-02T20:57:47.054Z,100.00
2024-04-02T20:59:54.774Z,100.00
2024-04-02T21:02:02.508Z,100.00
2024-04-02T21:04:10.076Z,100.00
2024-04-02T21:06:17.508Z,100.00
2024-04-02T21:08:24.868Z,100.00
2024-04-02T21:10:32.424Z,100.00
2024-04-02T21:12:39.820Z,100.00
2024-04-02T21:14:47.135Z,100.00
2024-04-02T21:16:54.551Z,100.00
2024-04-02T21:19:01.889Z,100.00
2024-04-02T21:21:10.415Z,100.00
2024-04-02T21:23:17.809Z,100.00
2024-04-02T21:25:25.640Z,100.00
2024-04-02T21:27:33.304Z,100.00
2024-04-02T21:29:41.127Z,100.00
2024-04-02T21:31:48.471Z,100.00
2024-04-02T21:33:56.217Z,100.00
2024-04-02T21:36:03.835Z,100.00
2024-04-02T21:38:15.101Z,100.00
2024-04-02T21:40:23.550Z,100.00
2024-04-02T21:42:30.897Z,100.00
2024-04-02T21:44:42.704Z,100.00
2024-04-02T21:46:50.743Z,100.00
2024-04-02T21:48:58.850Z,100.00
2024-04-02T21:51:08.521Z,100.00
2024-04-02T21:53:15.871Z,100.00
2024-04-02T21:55:24.022Z,100.00
2024-04-02T21:57:31.991Z,100.00
2024-04-02T21:59:39.283Z,100.00
2024-04-02T22:01:47.019Z,100.00
2024-04-02T22:03:54.320Z,100.00
2024-04-02T22:06:04.083Z,100.00
2024-04-02T22:08:13.200Z,100.00
2024-04-02T22:10:21.780Z,100.00
2024-04-02T22:12:29.181Z,99.97
2024-04-02T22:14:36.882Z,99.94
2024-04-02T22:16:44.649Z,100.00
2024-04-02T22:18:52.458Z,100.00
2024-04-02T22:21:07.181Z,100.00
2024-04-02T22:23:16.028Z,100.00
2024-04-02T22:25:23.598Z,100.00
2024-04-02T22:29:38.751Z,100.00
2024-04-02T22:31:46.063Z,100.00
2024-04-02T22:33:53.408Z,100.00
2024-04-02T22:36:00.822Z,100.00
2024-04-02T22:38:09.671Z,100.00
2024-04-02T22:40:18.127Z,100.00
2024-04-02T22:42:25.971Z,100.00
2024-04-02T22:44:33.330Z,100.00
2024-04-02T22:46:40.705Z,100.00
2024-04-02T22:48:50.095Z,100.00
2024-04-02T22:50:57.415Z,100.00
2024-04-02T22:53:05.375Z,100.00
2024-04-02T22:55:13.634Z,100.00
2024-04-02T22:57:20.998Z,100.00
2024-04-02T22:59:28.432Z,100.00
2024-04-02T23:01:35.920Z,100.00
2024-04-02T23:03:43.244Z,100.00
2024-04-02T23:05:50.645Z,100.00
2024-04-02T23:07:57.989Z,100.00
2024-04-02T23:10:06.096Z,100.00
2024-04-02T23:12:13.675Z,100.00
2024-04-02T23:14:21.799Z,100.00
2024-04-02T23:16:29.717Z,100.00
2024-04-02T23:18:37.673Z,100.00
2024-04-02T23:20:55.064Z,100.00
2024-04-02T23:23:02.767Z,100.00
2024-04-02T23:25:10.208Z,100.00
2024-04-02T23:27:17.603Z,100.00
2024-04-02T23:29:24.989Z,100.00
2024-04-02T23:31:32.360Z,100.00
2024-04-02T23:33:40.034Z,100.00
2024-04-02T23:35:48.034Z,100.00
2024-04-02T23:37:55.799Z,100.00
2024-04-02T23:40:04.242Z,100.00
2024-04-02T23:42:11.659Z,100.00
2024-04-02T23:44:19.407Z,100.00
2024-04-02T23:46:27.187Z,100.00
2024-04-02T23:48:34.995Z,100.00
2024-04-02T23:50:46.512Z,100.00
2024-04-02T23:52:53.923Z,100.00
2024-04-02T23:55:01.324Z,100.00
2024-04-02T23:57:09.151Z,100.00
2024-04-02T23:59:16.847Z,100.00
